createdAt,value
2017-04-11T00:00:18.336Z,7.05
2017-04-11T00:00:59.260Z,7.01
2017-04-11T00:01:39.678Z,7.05
2017-04-11T00:02:20.798Z,6.97
2017-04-11T00:03:01.195Z,7.11
2017-04-11T00:03:41.602Z,7.14
2017-04-11T00:05:19.298Z,7.13
2017-04-11T00:06:01.407Z,7.1
2017-04-11T00:06:42.801Z,7.05
2017-04-11T00:08:30.457Z,7
2017-04-11T00:09:10.871Z,7.05
2017-04-11T00:09:52.191Z,7.07
2017-04-11T00:10:32.606Z,7.07
2017-04-11T00:11:13.687Z,7.05
2017-04-11T00:11:54.765Z,7.05
2017-04-11T00:12:35.168Z,7.01
2017-04-11T00:13:16.516Z,7.03
2017-04-11T00:13:56.918Z,6.97
2017-04-11T00:14:37.347Z,7.04
2017-04-11T00:15:18.764Z,7.04
2017-04-11T00:15:59.759Z,6.95
2017-04-11T00:16:41.115Z,6.9
2017-04-11T00:17:21.540Z,6.93
2017-04-11T00:18:01.978Z,6.9
2017-04-11T00:18:42.374Z,6.92
2017-04-11T00:19:22.802Z,6.93
2017-04-11T00:20:05.033Z,6.95
2017-04-11T00:20:47.011Z,6.92
2017-04-11T00:21:27.441Z,6.83
2017-04-11T00:23:22.157Z,6.85
2017-04-11T00:24:02.586Z,6.83
2017-04-11T00:24:43.012Z,6.8
2017-04-11T00:25:24.960Z,6.82
2017-04-11T00:26:05.378Z,6.7
2017-04-11T00:26:48.280Z,6.78
2017-04-11T00:27:29.272Z,6.72
2017-04-11T00:28:09.700Z,6.71
2017-04-11T00:28:51.796Z,6.72
2017-04-11T00:29:33.199Z,6.65
2017-04-11T00:30:13.611Z,6.62
2017-04-11T00:30:54.034Z,6.65
2017-04-11T00:31:34.472Z,6.57
2017-04-11T00:32:16.788Z,6.62
2017-04-11T00:32:57.171Z,6.54
2017-04-11T00:33:37.610Z,6.49
2017-04-11T00:34:17.983Z,6.56
2017-04-11T00:36:06.484Z,6.39
2017-04-11T00:36:47.489Z,6.36
2017-04-11T00:37:29.477Z,6.31
2017-04-11T00:38:09.882Z,6.28
2017-04-11T00:38:50.272Z,6.29
2017-04-11T00:39:30.677Z,6.22
2017-04-11T00:40:11.991Z,6.26
2017-04-11T00:40:52.407Z,6.26
2017-04-11T00:41:42.305Z,6.25
2017-04-11T00:42:22.706Z,6.36
2017-04-11T00:43:03.967Z,6.28
2017-04-11T00:43:45.801Z,6.25
2017-04-11T00:44:26.817Z,6.22
2017-04-11T00:45:07.210Z,6.41
2017-04-11T00:45:49.332Z,6.38
2017-04-11T00:46:29.728Z,6.36
2017-04-11T00:47:10.135Z,6.46
2017-04-11T00:47:50.529Z,6.53
2017-04-11T00:48:30.948Z,6.57
2017-04-11T00:49:11.380Z,6.57
2017-04-11T00:51:25.783Z,6.72
2017-04-11T00:52:07.782Z,6.65
2017-04-11T00:52:50.780Z,6.6
2017-04-11T00:53:32.871Z,6.72
2017-04-11T00:54:13.261Z,6.62
2017-04-11T00:54:53.678Z,6.59
2017-04-11T00:55:34.889Z,6.68
2017-04-11T00:56:16.301Z,6.82
2017-04-11T00:56:56.694Z,6.82
2017-04-11T00:57:37.885Z,6.74
2017-04-11T00:58:20.105Z,6.7
2017-04-11T01:00:18.619Z,6.89
2017-04-11T01:00:59.979Z,6.9
2017-04-11T01:01:40.445Z,6.93
2017-04-11T01:02:21.656Z,6.92
2017-04-11T01:04:35.090Z,6.9
2017-04-11T01:07:55.189Z,6.83
2017-04-11T01:10:11.277Z,6.92
2017-04-11T01:11:58.826Z,6.93
2017-04-11T01:14:14.261Z,7.07
2017-04-11T01:16:03.329Z,7.29
2017-04-11T01:16:43.746Z,7.25
2017-04-11T01:18:59.379Z,7.37
2017-04-11T01:19:39.798Z,7.4
2017-04-11T01:20:20.247Z,7.44
2017-04-11T01:21:01.270Z,7.48
2017-04-11T01:43:41.541Z,7.74
2017-04-11T01:44:21.944Z,7.77
2017-04-11T01:45:02.372Z,7.8
2017-04-11T01:45:42.780Z,7.78
2017-04-11T01:46:23.180Z,7.74
2017-04-11T01:47:03.570Z,7.69
2017-04-11T01:47:44.003Z,7.64
2017-04-11T01:48:25.888Z,7.67
2017-04-11T01:49:10.064Z,7.77
2017-04-11T01:49:50.427Z,7.72
2017-04-11T01:50:31.360Z,7.72
2017-04-11T01:51:13.688Z,7.77
2017-04-11T02:04:04.715Z,7.72
2017-04-11T02:04:45.677Z,7.75
2017-04-11T02:05:26.712Z,7.72
2017-04-11T02:06:07.070Z,7.77
2017-04-11T02:06:52.211Z,7.75
2017-04-11T02:07:33.276Z,7.74
2017-04-11T02:08:15.456Z,7.67
2017-04-11T02:10:30.807Z,7.72
2017-04-11T02:11:11.979Z,7.75
2017-04-11T02:11:52.637Z,7.84
2017-04-11T05:03:02.764Z,5.67
2017-04-11T05:03:43.170Z,5.65
2017-04-11T05:04:23.587Z,5.55
2017-04-11T05:05:07.745Z,5.59
2017-04-11T05:05:48.141Z,5.58
2017-04-11T05:06:28.578Z,5.59
2017-04-11T05:07:10.568Z,5.59
2017-04-11T05:07:51.794Z,5.7
2017-04-11T05:08:33.142Z,5.69
2017-04-11T05:10:20.832Z,5.77
2017-04-11T05:11:01.213Z,5.73
2017-04-11T05:11:41.644Z,5.81
2017-04-11T05:12:22.985Z,5.87
2017-04-11T05:13:05.912Z,5.84
2017-04-11T05:13:46.335Z,5.84
2017-04-11T05:14:27.431Z,5.92
2017-04-11T05:15:08.552Z,5.87
2017-04-11T05:15:49.622Z,5.81
2017-04-11T05:18:02.780Z,6.01
2017-04-11T05:18:43.183Z,5.97
2017-04-11T05:19:23.629Z,5.91
2017-04-11T05:20:04.047Z,6.02
2017-04-11T05:21:53.571Z,6.06
2017-04-11T05:22:34.804Z,6.01
2017-04-11T05:23:15.196Z,6.09
2017-04-11T05:23:57.393Z,6.13
2017-04-11T05:24:39.299Z,6.19
2017-04-11T05:25:20.507Z,6.29
2017-04-11T05:26:59.230Z,6.35
2017-04-11T05:29:12.537Z,6.39
2017-04-11T05:33:01.703Z,6.59
2017-04-11T05:33:42.871Z,6.65
2017-04-11T05:34:26.298Z,6.62
2017-04-11T05:35:07.295Z,6.62
2017-04-11T05:37:00.103Z,6.75
2017-04-11T05:37:40.485Z,6.82
2017-04-11T05:38:21.745Z,6.89
2017-04-11T05:39:02.158Z,6.93
2017-04-11T05:39:42.571Z,6.95
2017-04-11T05:40:23.835Z,7.03
2017-04-11T05:43:56.071Z,7.23
2017-04-11T05:44:38.167Z,7.32
2017-04-11T05:45:20.224Z,7.47
2017-04-11T05:46:02.863Z,7.41
2017-04-11T05:46:43.327Z,7.47
2017-04-11T05:47:24.477Z,7.61
2017-04-11T05:48:04.921Z,7.62
2017-04-11T05:48:45.346Z,7.74
2017-04-11T05:50:39.612Z,7.87
2017-04-11T05:51:20.774Z,7.93
2017-04-11T05:52:01.181Z,7.91
2017-04-11T05:52:44.172Z,8.05
2017-04-11T05:53:28.339Z,8.14
2017-04-11T05:54:08.743Z,8.14
2017-04-11T05:54:49.147Z,8.16
2017-04-11T05:55:31.176Z,8.2
2017-04-11T05:56:16.339Z,8.17
2017-04-11T05:56:57.326Z,8.34
2017-04-11T05:57:38.418Z,8.32
2017-04-11T05:58:19.609Z,8.36
2017-04-11T05:59:00.685Z,8.41
2017-04-11T05:59:41.929Z,8.45
2017-04-11T06:00:22.871Z,8.44
2017-04-11T06:01:03.265Z,8.53
2017-04-11T06:01:44.343Z,8.5
2017-04-11T06:02:24.768Z,8.57
2017-04-11T06:03:05.144Z,8.56
2017-04-11T06:03:47.205Z,8.59
2017-04-11T06:04:27.614Z,8.56
2017-04-11T06:05:08.044Z,8.54
2017-04-11T06:05:49.263Z,8.57
2017-04-11T06:06:30.386Z,8.54
2017-04-11T06:07:11.440Z,8.57
2017-04-11T06:07:52.680Z,8.54
2017-04-11T06:08:33.103Z,8.64
2017-04-11T06:09:14.354Z,8.75
2017-04-11T06:09:57.705Z,8.71
2017-04-11T06:10:38.099Z,8.74
2017-04-11T06:11:21.176Z,8.75
2017-04-11T06:12:01.626Z,8.72
2017-04-11T06:12:42.037Z,8.77
2017-04-11T06:13:22.410Z,8.81
2017-04-11T06:14:05.182Z,8.75
2017-04-11T06:14:46.330Z,8.72
2017-04-11T06:15:26.723Z,8.79
2017-04-11T06:16:08.099Z,8.86
2017-04-11T06:17:55.852Z,8.86
2017-04-11T06:18:36.283Z,8.97
2017-04-11T06:19:16.691Z,8.97
2017-04-11T06:19:58.793Z,8.97
2017-04-11T06:20:39.795Z,8.99
2017-04-11T06:21:20.248Z,9.03
2017-04-11T06:22:00.664Z,9.03
2017-04-11T06:22:42.293Z,9.08
2017-04-11T06:23:22.735Z,9.18
2017-04-11T06:24:03.862Z,9.19
2017-04-11T06:24:44.394Z,9.21
2017-04-11T06:25:27.572Z,9.29
2017-04-11T06:26:08.790Z,9.34
2017-04-11T06:26:51.022Z,9.29
2017-04-11T06:29:05.597Z,9.33
2017-04-11T06:29:47.283Z,9.29
2017-04-11T06:30:27.690Z,9.29
2017-04-11T06:31:08.085Z,9.27
2017-04-11T06:31:48.497Z,9.27
2017-04-11T06:33:41.124Z,9.37
2017-04-11T06:34:21.499Z,9.37
2017-04-11T06:35:01.993Z,9.31
2017-04-11T06:35:42.388Z,9.36
2017-04-11T06:36:23.642Z,9.34
2017-04-11T06:37:04.044Z,9.33
2017-04-11T06:37:45.283Z,9.37
2017-04-11T06:38:25.663Z,9.39
2017-04-11T06:39:06.079Z,9.44
2017-04-11T06:39:47.037Z,9.47
2017-04-11T06:40:28.267Z,9.55
2017-04-11T06:41:09.269Z,9.54
2017-04-11T06:41:50.469Z,9.58
2017-04-11T06:42:30.871Z,9.62
2017-04-11T06:43:11.866Z,9.76
2017-04-11T06:43:52.271Z,9.72
2017-04-11T06:44:33.432Z,9.8
2017-04-11T06:45:15.366Z,9.76
2017-04-11T06:45:55.785Z,9.9
2017-04-11T06:46:36.237Z,9.95
2017-04-11T06:47:17.628Z,9.97
2017-04-11T06:47:58.032Z,10.07
2017-04-11T06:49:35.619Z,10.2
2017-04-11T06:50:16.007Z,10.1
2017-04-11T06:50:56.403Z,10.25
2017-04-11T06:51:36.852Z,10.24
2017-04-11T06:52:17.299Z,10.23
2017-04-11T06:52:58.850Z,10.23
2017-04-11T06:53:39.276Z,10.34
2017-04-11T06:54:19.672Z,10.33
2017-04-11T06:55:00.825Z,10.3
2017-04-11T06:55:41.242Z,10.3
2017-04-11T06:56:22.146Z,10.38
2017-04-11T06:57:02.592Z,10.33
2017-04-11T06:57:43.955Z,10.43
2017-04-11T06:58:24.379Z,10.46
2017-04-11T06:59:05.759Z,10.39
2017-04-11T06:59:46.207Z,10.42
2017-04-11T07:00:27.329Z,10.42
2017-04-11T07:01:08.525Z,10.28
2017-04-11T07:01:48.936Z,10.3
2017-04-11T07:02:30.161Z,10.36
2017-04-11T07:03:10.609Z,10.28
2017-04-11T07:03:51.771Z,10.34
2017-04-11T07:04:32.178Z,10.45
2017-04-11T07:05:12.598Z,10.48
2017-04-11T07:05:53.811Z,10.59
2017-04-11T07:06:34.257Z,10.69
2017-04-11T07:07:14.725Z,10.77
2017-04-11T07:07:55.141Z,10.94
2017-04-11T07:08:35.523Z,11.01
2017-04-11T07:09:16.848Z,11.12
2017-04-11T07:09:57.238Z,11.16
2017-04-11T07:10:37.698Z,11.26
2017-04-11T07:11:18.106Z,11.3
2017-04-11T07:12:00.451Z,11.31
2017-04-11T07:12:40.918Z,11.43
2017-04-11T07:13:21.316Z,11.38
2017-04-11T07:14:03.481Z,11.44
2017-04-11T07:14:43.917Z,11.49
2017-04-11T07:16:31.684Z,11.71
2017-04-11T07:17:12.109Z,11.86
2017-04-11T07:17:55.091Z,11.91
2017-04-11T07:18:38.198Z,11.97
2017-04-11T07:19:18.609Z,12.1
2017-04-11T07:19:59.005Z,12.08
2017-04-11T07:20:39.440Z,12.18
2017-04-11T07:21:19.854Z,12.3
2017-04-11T07:22:03.876Z,12.48
2017-04-11T07:22:44.842Z,12.63
2017-04-11T07:23:26.209Z,12.69
2017-04-11T07:24:09.358Z,12.91
2017-04-11T07:24:50.803Z,13.02
2017-04-11T07:25:31.868Z,13.05
2017-04-11T07:27:09.854Z,13.24
2017-04-11T07:30:57.132Z,13.68
2017-04-11T07:31:39.380Z,13.82
2017-04-11T07:32:21.566Z,13.97
2017-04-11T07:33:03.857Z,14.12
2017-04-11T07:33:51.119Z,14.25
2017-04-11T07:38:45.451Z,15.05
2017-04-11T07:42:07.510Z,15.39
2017-04-11T07:42:47.926Z,15.47
2017-04-11T07:43:32.140Z,15.55
2017-04-11T07:48:52.667Z,16.41
2017-04-11T07:49:34.154Z,16.47
2017-04-11T07:50:17.343Z,16.49
2017-04-11T07:52:33.292Z,17.13
2017-04-11T07:53:17.273Z,17.63
2017-04-11T07:55:30.215Z,19.87
2017-04-11T07:56:10.643Z,20.68
2017-04-11T07:56:51.849Z,21.7
2017-04-11T07:57:32.367Z,22.51
2017-04-11T07:59:21.200Z,24.48
2017-04-11T08:00:02.229Z,25.24
2017-04-11T08:00:44.244Z,25.86
2017-04-11T08:01:24.659Z,26.31
2017-04-11T08:02:05.877Z,27
2017-04-11T08:02:48.594Z,27.57
2017-04-11T08:03:29.160Z,28.12
2017-04-11T08:04:10.307Z,28.72
2017-04-11T08:04:55.165Z,29.28
2017-04-11T08:05:35.563Z,29.8
2017-04-11T08:09:32.535Z,32.11
2017-04-11T08:14:26.656Z,33.79
2017-04-11T08:15:07.630Z,34.03
2017-04-11T08:15:48.045Z,34.1
2017-04-11T08:17:25.841Z,34.37
2017-04-11T08:18:07.068Z,34.31
2017-04-11T08:18:49.881Z,34.33
2017-04-11T08:19:30.396Z,34.46
2017-04-11T08:20:11.432Z,34.56
2017-04-11T08:20:51.870Z,34.71
2017-04-11T08:21:33.264Z,34.98
2017-04-11T08:22:13.730Z,35.31
2017-04-11T08:27:08.996Z,36.43
2017-04-11T08:27:49.445Z,36.66
2017-04-11T08:28:31.521Z,36.44
2017-04-11T08:31:52.215Z,34.13
2017-04-11T08:32:34.145Z,33.58
2017-04-11T08:33:14.573Z,33.09
2017-04-11T08:33:55.014Z,32.71
2017-04-11T08:34:35.457Z,32.34
2017-04-11T08:35:15.869Z,31.87
2017-04-11T08:40:09.515Z,30.54
2017-04-11T08:40:49.947Z,30.51
2017-04-11T08:41:30.387Z,30.59
2017-04-11T08:42:10.819Z,30.52
2017-04-11T08:42:51.275Z,30.39
2017-04-11T08:45:04.194Z,29.58
2017-04-11T08:45:44.622Z,29.46
2017-04-11T08:47:42.616Z,29.31
2017-04-11T08:48:24.991Z,29.1
2017-04-11T08:49:05.449Z,28.89
2017-04-11T08:49:46.583Z,28.75
2017-04-11T08:50:26.984Z,28.7
2017-04-11T08:51:09.367Z,28.83
2017-04-11T08:51:50.607Z,28.75
2017-04-11T08:52:31.750Z,28.8
2017-04-11T08:53:12.151Z,28.9
2017-04-11T08:54:49.713Z,29.12
2017-04-11T08:55:30.165Z,29.12
2017-04-11T08:56:11.400Z,29.13
2017-04-11T08:56:52.377Z,29.12
2017-04-11T08:57:33.370Z,29
2017-04-11T08:58:13.830Z,29.06
2017-04-11T08:58:55.146Z,28.84
2017-04-11T08:59:35.590Z,28.86
2017-04-11T09:00:16.031Z,28.86
2017-04-11T09:00:56.518Z,28.96
2017-04-11T09:01:37.491Z,29.1
2017-04-11T09:02:17.918Z,29.24
2017-04-11T09:10:42.668Z,35.88
2017-04-11T09:11:23.093Z,36.53
2017-04-11T09:12:04.224Z,37.11
2017-04-11T09:12:44.682Z,37.73
2017-04-11T09:13:25.115Z,38.07
2017-04-11T09:15:12.974Z,38.72
2017-04-11T09:24:44.623Z,41.14
2017-04-11T09:25:25.090Z,41.07
2017-04-11T09:26:06.327Z,41.1
2017-04-11T09:26:47.525Z,41.2
2017-04-11T09:28:35.098Z,41.51
2017-04-11T09:29:16.217Z,41.51
2017-04-11T09:29:57.797Z,41.6
2017-04-11T09:30:38.086Z,41.49
2017-04-11T09:32:26.285Z,41.49
2017-04-11T09:33:07.437Z,41.48
2017-04-11T09:33:47.927Z,41.49
2017-04-11T09:34:29.053Z,41.49
2017-04-11T09:35:09.518Z,41.45
2017-04-11T09:35:52.779Z,41.6
2017-04-11T09:36:33.200Z,41.67
2017-04-11T09:37:14.459Z,41.87
2017-04-11T09:37:54.945Z,42.07
2017-04-11T09:38:36.097Z,42.2
2017-04-11T09:39:17.348Z,42.33
2017-04-11T09:39:57.815Z,42.28
2017-04-11T09:40:38.273Z,42.22
2017-04-11T09:41:18.689Z,42.2
2017-04-11T09:41:59.144Z,42.2
2017-04-11T09:42:39.664Z,42.1
2017-04-11T09:43:20.150Z,42.14
2017-04-11T09:44:00.620Z,42.18
2017-04-11T09:44:41.029Z,42.18
2017-04-11T09:45:21.710Z,42.4
2017-04-11T09:46:02.784Z,42.52
2017-04-11T09:46:43.224Z,42.74
2017-04-11T09:47:24.522Z,42.89
2017-04-11T09:48:05.673Z,43.08
2017-04-11T09:48:47.873Z,43.22
2017-04-11T09:49:28.277Z,43.34
2017-04-11T09:51:16.214Z,43.94
2017-04-11T09:51:56.672Z,44.04
2017-04-11T09:55:42.945Z,44.76
2017-04-11T09:56:23.409Z,44.62
2017-04-11T09:58:11.030Z,43.5
2017-04-11T09:58:52.303Z,43.19
2017-04-11T10:01:05.296Z,42.37
2017-04-11T10:06:23.481Z,43.22
2017-04-11T10:08:11.016Z,42.94
2017-04-11T10:08:51.434Z,42.68
2017-04-11T10:09:31.893Z,42.51
2017-04-11T10:10:12.840Z,42.34
2017-04-11T10:10:53.955Z,42.36
2017-04-11T10:11:35.787Z,42.44
2017-04-11T10:12:16.226Z,42.55
2017-04-11T10:14:29.768Z,43.41
2017-04-11T10:16:17.592Z,43.8
2017-04-11T10:16:58.085Z,43.87
2017-04-11T10:19:10.855Z,43.27
2017-04-11T10:26:01.878Z,43.39
2017-04-11T10:29:29.568Z,44.04
2017-04-11T10:31:18.613Z,44.18
2017-04-11T10:33:07.060Z,44.48
2017-04-11T10:33:47.509Z,44.56
2017-04-11T10:34:29.321Z,44.67
2017-04-11T10:35:10.717Z,44.75
2017-04-11T10:35:51.826Z,44.82
2017-04-11T10:36:32.984Z,44.83
2017-04-11T10:37:14.322Z,44.7
2017-04-11T10:37:56.645Z,44.3
2017-04-11T10:38:37.712Z,43.92
2017-04-11T10:39:20.940Z,43.49
2017-04-11T10:40:02.096Z,43.11
2017-04-11T10:40:44.363Z,42.47
2017-04-11T10:41:26.614Z,41.76
2017-04-11T10:42:07.003Z,41.45
2017-04-11T10:42:47.583Z,41.41
2017-04-11T10:43:27.919Z,41.61
2017-04-11T10:44:08.930Z,41.87
2017-04-11T11:40:48.845Z,30.63
2017-04-11T11:41:30.166Z,31.25
2017-04-11T11:42:10.609Z,31.87
2017-04-11T11:42:51.062Z,32.16
2017-04-11T11:43:31.502Z,32.23
2017-04-11T11:44:11.947Z,32.09
2017-04-11T11:44:52.398Z,31.86
2017-04-11T11:45:32.814Z,31.5
2017-04-11T11:46:13.255Z,30.93
2017-04-11T11:46:53.721Z,30.38
2017-04-11T11:47:35.074Z,29.77
2017-04-11T11:48:15.516Z,29.37
2017-04-11T11:48:56.604Z,29.07
2017-04-11T11:49:37.009Z,28.86
2017-04-11T11:50:17.400Z,28.83
2017-04-11T11:52:10.210Z,30.38
2017-04-11T11:52:50.667Z,31.44
2017-04-11T11:53:31.806Z,32.44
2017-04-11T11:54:12.261Z,33.09
2017-04-11T11:54:52.733Z,33.4
2017-04-11T11:55:33.897Z,33.38
2017-04-11T11:56:14.374Z,33.16
2017-04-11T11:56:54.823Z,32.79
2017-04-11T11:57:35.249Z,32.41
2017-04-11T11:58:15.710Z,31.93
2017-04-11T12:00:29.954Z,30.91
2017-04-11T12:01:10.437Z,30.56
2017-04-11T12:01:51.700Z,30.1
2017-04-11T12:02:32.121Z,29.74
2017-04-11T12:03:12.613Z,29.65
2017-04-11T12:03:53.055Z,30.08
2017-04-11T12:04:33.459Z,30.78
2017-04-11T12:05:13.915Z,31.59
2017-04-11T12:05:54.317Z,32.17
2017-04-11T12:06:34.706Z,32.54
2017-04-11T12:07:15.210Z,33.22
2017-04-11T12:30:46.138Z,33.89
2017-04-11T12:31:26.581Z,33.35
2017-04-11T12:32:07.834Z,32.76
2017-04-11T12:34:00.649Z,31.05
2017-04-11T12:34:42.719Z,30.59
2017-04-11T12:35:23.209Z,30.11
2017-04-11T12:36:04.462Z,29.74
2017-04-11T12:36:44.900Z,29.3
2017-04-11T12:37:25.349Z,29.02
2017-04-11T12:39:14.237Z,28.16
2017-04-11T12:39:54.669Z,27.83
2017-04-11T12:40:37.659Z,27.61
2017-04-11T12:41:20.569Z,27.37
2017-04-11T13:43:38.042Z,22.43
2017-04-11T13:44:18.469Z,22.41
2017-04-11T13:44:58.899Z,22.47
2017-04-11T13:45:39.359Z,22.52
2017-04-11T13:46:19.748Z,22.46
2017-04-11T13:47:00.269Z,22.37
2017-04-11T13:47:41.470Z,22.22
2017-04-11T13:48:21.838Z,22.06
2017-04-11T13:49:05.104Z,21.97
2017-04-11T13:49:45.531Z,21.85
2017-04-11T13:50:26.938Z,21.91
2017-04-11T14:25:15.501Z,20.22
2017-04-11T14:25:57.526Z,20.29
2017-04-11T14:26:39.800Z,20.24
2017-04-11T14:27:22.697Z,20.1
2017-04-11T14:28:08.611Z,20.03
2017-04-11T14:28:49.061Z,20
2017-04-11T14:29:30.317Z,19.85
2017-04-11T14:30:11.198Z,19.82
2017-04-11T14:30:52.376Z,19.77
2017-04-11T14:32:45.454Z,19.89
2017-04-11T14:33:27.888Z,19.9
2017-04-11T14:34:12.221Z,20.02
2017-04-11T14:34:53.430Z,20.14
2017-04-11T14:35:33.819Z,20.17
2017-04-11T14:36:14.996Z,20.33
2017-04-11T14:36:55.389Z,20.4
2017-04-11T14:37:36.107Z,20.56
2017-04-11T14:38:16.542Z,20.64
2017-04-11T14:40:30.340Z,20.82
2017-04-11T14:41:10.784Z,20.78
2017-04-11T14:41:53.016Z,20.78
2017-04-11T14:42:33.430Z,20.82
2017-04-11T14:43:14.772Z,20.83
2017-04-11T14:43:55.822Z,20.86
2017-04-11T14:44:36.265Z,20.88
2017-04-11T14:45:17.612Z,20.83
2017-04-11T14:45:58.600Z,20.88
2017-04-11T14:46:40.016Z,20.86
2017-04-11T14:47:20.424Z,20.93
2017-04-11T14:48:00.889Z,20.86
2017-04-11T14:48:41.361Z,20.88
2017-04-11T14:49:21.779Z,20.83
2017-04-11T14:50:02.197Z,20.83
2017-04-11T14:50:42.634Z,20.88
2017-04-11T14:51:23.026Z,21.03
2017-04-11T14:52:04.391Z,21.03
2017-04-11T14:52:48.253Z,21.05
2017-04-11T16:29:41.992Z,18.6
2017-04-11T16:30:27.959Z,18.63
2017-04-11T16:31:10.317Z,18.51
2017-04-11T16:31:53.653Z,18.49
2017-04-11T16:32:36.827Z,18.42
2017-04-11T16:34:37.209Z,18.28
2017-04-11T16:35:17.617Z,18.3
2017-04-11T16:37:32.975Z,18.08
2017-04-11T16:38:13.343Z,18.13
2017-04-11T16:38:54.367Z,18
2017-04-11T16:39:34.890Z,17.98
2017-04-11T16:40:15.416Z,17.94
2017-04-11T16:40:56.212Z,17.87
2017-04-11T16:41:36.706Z,17.88
2017-04-11T16:42:17.458Z,17.84
2017-04-11T16:42:58.487Z,17.9
2017-04-11T16:43:39.056Z,17.88
2017-04-11T16:44:20.037Z,17.76
2017-04-11T16:46:09.810Z,17.76
2017-04-11T16:46:50.724Z,17.88
2017-04-11T16:47:32.215Z,17.79
2017-04-11T16:48:12.688Z,17.76
2017-04-11T16:48:53.094Z,17.76
2017-04-11T16:49:33.530Z,17.8
2017-04-11T16:50:13.979Z,17.72
2017-04-11T16:50:55.558Z,17.73
2017-04-11T16:51:37.048Z,17.73
2017-04-11T16:52:19.842Z,17.71
2017-04-11T16:53:06.981Z,17.69
2017-04-11T16:54:46.343Z,17.6
2017-04-11T16:55:26.982Z,17.57
2017-04-11T16:56:08.064Z,17.52
2017-04-11T16:56:49.443Z,17.49
2017-04-11T16:57:29.232Z,17.47
2017-04-11T16:58:09.701Z,17.41
2017-04-11T16:58:50.430Z,17.37
2017-04-11T19:53:02.685Z,8.63
2017-04-11T19:53:43.476Z,8.57
2017-04-11T19:54:24.240Z,8.68
2017-04-11T19:55:04.713Z,8.57
2017-04-11T19:55:45.361Z,8.57
2017-04-11T19:56:26.012Z,8.56
2017-04-11T19:57:06.522Z,8.53
2017-04-11T19:57:47.401Z,8.57
2017-04-11T19:58:27.996Z,8.56
2017-04-11T19:59:08.635Z,8.54
2017-04-11T19:59:49.232Z,8.6
2017-04-11T20:00:29.807Z,8.54
2017-04-11T20:01:10.458Z,8.56
2017-04-11T20:01:50.928Z,8.56
2017-04-11T20:02:33.810Z,8.54
2017-04-11T20:03:15.456Z,8.54
2017-04-11T20:03:56.877Z,8.6
2017-04-11T20:04:38.566Z,8.53
2017-04-11T20:05:18.860Z,8.56
2017-04-11T20:07:13.423Z,8.56
2017-04-11T20:10:47.800Z,8.61
2017-04-11T20:11:28.247Z,8.59
2017-04-11T20:12:09.193Z,8.52
2017-04-11T20:12:49.626Z,8.68
2017-04-11T20:13:30.061Z,8.64
2017-04-11T20:14:10.807Z,8.61
2017-04-11T20:14:51.293Z,8.71
2017-04-11T20:15:32.506Z,8.68
2017-04-11T20:16:12.901Z,8.72
2017-04-11T20:16:53.309Z,8.71
2017-04-11T20:17:34.260Z,8.71
2017-04-11T20:18:16.096Z,8.71
2017-04-11T20:19:08.488Z,8.75
2017-04-11T20:19:55.489Z,8.66
2017-04-11T20:20:36.598Z,8.68
2017-04-11T20:21:18.732Z,8.72
2017-04-11T22:30:50.971Z,9.11
2017-04-11T22:31:32.366Z,9.11
2017-04-11T22:32:12.772Z,9.13
2017-04-11T22:32:53.944Z,9.13
2017-04-11T22:33:36.022Z,9.13
2017-04-11T22:34:18.564Z,9.18
2017-04-11T22:34:59.572Z,9.12
2017-04-11T22:35:39.990Z,9.21
2017-04-11T22:36:20.446Z,9.15
2017-04-11T22:37:00.790Z,9.18
2017-04-11T22:37:41.269Z,9.16
2017-04-11T22:38:21.708Z,9.16
2017-04-11T22:39:02.115Z,9.11
2017-04-11T22:39:43.977Z,9.09
2017-04-11T22:40:24.395Z,9.13
2017-04-11T22:41:04.801Z,9.15
2017-04-11T22:41:45.206Z,9.09
2017-04-11T22:42:25.626Z,9.03
2017-04-11T22:43:06.846Z,9.02
2017-04-11T22:43:49.336Z,9.05
2017-04-11T22:44:29.785Z,9.15
2017-04-11T22:45:11.002Z,9.03
2017-04-11T22:45:51.536Z,9.09
2017-04-11T22:46:33.438Z,9.05
2017-04-11T22:47:13.880Z,9.03
2017-04-11T22:47:55.847Z,9.05
2017-04-11T22:48:37.862Z,9.05
2017-04-11T22:49:19.132Z,9.09
2017-04-11T22:50:00.382Z,9.13
2017-04-11T22:50:41.357Z,9.16
2017-04-11T22:51:22.520Z,9.24
